| time (UTC) | temp F | wind direction | speed MPH | gust MPH | rain 1hr in | rain 24hr in | rain mn in | humidity % | barometer mb |
| 20260504044534 | 57 | 224 | 4.0 | 9.0 | 0.00 | 0.00 | 0.00 | 73 | 1009.2 |
| 20260504043036 | 57 | 235 | 4.0 | 5.0 | 0.00 | 0.00 | 0.00 | 73 | 1009.7 |
| 20260504041529 | 57 | 236 | 5.0 | 9.0 | 0.00 | 0.00 | 0.00 | 72 | 1009.4 |
| 20260504040028 | 58 | 233 | 6.0 | 9.0 | 0.00 | 0.00 | 0.00 | 70 | 1009.4 |
| 20260504034528 | 58 | 216 | 4.0 | 6.0 | 0.00 | 0.00 | 0.00 | 69 | 1009.4 |
| 20260504033026 | 59 | 205 | 4.0 | 12.0 | 0.00 | 0.00 | 0.00 | 68 | 1009.4 |
| 20260504031526 | 60 | 205 | 6.0 | 12.0 | 0.00 | 0.00 | 0.00 | 68 | 1009.7 |
| 20260504030026 | 60 | 203 | 8.0 | 15.0 | 0.00 | 0.00 | 0.00 | 67 | 1009.8 |
| 20260504024532 | 61 | 217 | 6.0 | 13.0 | 0.00 | 0.00 | 0.00 | 65 | 1009.3 |
| 20260504023025 | 61 | 224 | 11.0 | 21.0 | 0.00 | 0.00 | 0.00 | 64 | 1009.8 |
| 20260504021525 | 61 | 213 | 10.0 | 15.0 | 0.00 | 0.00 | 0.00 | 64 | 1009.5 |
| 20260504020022 | 61 | 191 | 11.0 | 15.0 | 0.00 | 0.00 | 0.00 | 65 | 1009.6 |
| 20260504014522 | 61 | 187 | 10.0 | 16.0 | 0.00 | 0.00 | 0.00 | 63 | 1009.7 |
| 20260504013032 | 62 | 207 | 12.0 | 20.0 | 0.00 | 0.00 | 0.00 | 63 | 1009.3 |
| 20260504011521 | 62 | 215 | 10.0 | 18.0 | 0.00 | 0.00 | 0.00 | 60 | 1009.0 |
| 20260504010020 | 63 | 213 | 10.0 | 22.0 | 0.00 | 0.00 | 0.00 | 61 | 1009.1 |
| 20260504004524 | 63 | 203 | 12.0 | 20.0 | 0.00 | 0.00 | 0.00 | 60 | 1009.1 |
| 20260504003034 | 64 | 235 | 5.0 | 13.0 | 0.00 | 0.00 | 0.00 | 60 | 1009.0 |
| 20260504001518 | 64 | 188 | 5.0 | 10.0 | 0.00 | 0.00 | 0.00 | 59 | 1009.2 |
| 20260504000018 | 64 | 190 | 6.0 | 11.0 | 0.00 | 0.00 | 0.00 | 59 | 1009.2 |
| 20260503234517 | 65 | 210 | 12.0 | 18.0 | 0.00 | 0.00 | 0.00 | 55 | 1009.1 |
| 20260503233015 | 66 | 227 | 14.0 | 22.0 | 0.00 | 0.00 | 0.00 | 54 | 1008.9 |
| 20260503231512 | 66 | 233 | 14.0 | 20.0 | 0.00 | 0.00 | 0.00 | 53 | 1009.6 |
| 20260503230010 | 67 | 222 | 16.0 | 22.0 | 0.00 | 0.00 | 0.00 | 51 | 1010.3 |
| 20260503224511 | 68 | 223 | 13.0 | 21.0 | 0.00 | 0.00 | 0.00 | 50 | 1010.5 |
| 20260503223006 | 67 | 194 | 11.0 | 22.0 | 0.00 | 0.00 | 0.00 | 54 | 1010.4 |
| 20260503221506 | 66 | 223 | 12.0 | 23.0 | 0.00 | 0.00 | 0.00 | 52 | 1010.6 |
| 20260503220007 | 66 | 191 | 12.0 | 23.0 | 0.00 | 0.00 | 0.00 | 53 | 1010.7 |
| 20260503214501 | 66 | 211 | 16.0 | 25.0 | 0.00 | 0.00 | 0.00 | 53 | 1010.9 |
| 20260503213059 | 67 | 155 | 15.0 | 23.0 | 0.00 | 0.00 | 0.00 | 53 | 1011.0 |
| 20260503211558 | 66 | 205 | 12.0 | 22.0 | 0.00 | 0.00 | 0.00 | 58 | 1011.2 |
| 20260503210054 | 65 | 195 | 16.0 | 25.0 | 0.00 | 0.00 | 0.00 | 54 | 1011.0 |
| 20260503204556 | 64 | 214 | 14.0 | 28.0 | 0.00 | 0.00 | 0.00 | 56 | 1011.1 |
| 20260503203051 | 64 | 212 | 15.0 | 25.0 | 0.00 | 0.00 | 0.00 | 57 | 1010.8 |
| 20260503201547 | 64 | 228 | 15.0 | 28.0 | 0.00 | 0.00 | 0.00 | 56 | 1011.4 |
| 20260503200044 | 62 | 211 | 8.0 | 21.0 | 0.00 | 0.00 | 0.00 | 61 | 1012.3 |
| 20260503194544 | 61 | 219 | 14.0 | 23.0 | 0.00 | 0.00 | 0.00 | 60 | 1012.7 |
| 20260503193041 | 61 | 219 | 10.0 | 20.0 | 0.00 | 0.00 | 0.00 | 59 | 1013.0 |
| 20260503191538 | 61 | 196 | 11.0 | 18.0 | 0.00 | 0.00 | 0.00 | 58 | 1013.4 |
| 20260503190034 | 60 | 221 | 13.0 | 18.0 | 0.00 | 0.00 | 0.00 | 59 | 1014.4 |
| 20260503184548 | 60 | 212 | 11.0 | 23.0 | 0.00 | 0.00 | 0.00 | 59 | 1014.2 |
| 20260503183033 | 61 | 214 | 16.0 | 26.0 | 0.00 | 0.00 | 0.00 | 55 | 1014.3 |
| 20260503181532 | 62 | 193 | 15.0 | 24.0 | 0.00 | 0.00 | 0.00 | 56 | 1014.3 |
| 20260503180035 | 61 | 205 | 13.0 | 25.0 | 0.00 | 0.00 | 0.00 | 56 | 1015.0 |
| 20260503174531 | 62 | 212 | 17.0 | 27.0 | 0.00 | 0.00 | 0.00 | 55 | 1015.3 |
| 20260503173033 | 63 | 221 | 13.0 | 24.0 | 0.00 | 0.00 | 0.00 | 56 | 1015.7 |
| 20260503171521 | 63 | 232 | 15.0 | 21.0 | 0.00 | 0.00 | 0.00 | 56 | 1015.9 |
| 20260503090115 | 40 | 243 | 0.0 | 2.0 | 0.00 | 0.00 | 0.00 | 81 | 1018.7 |
| 20260503081600 | 40 | 197 | 1.0 | 3.0 | 0.00 | 0.00 | 0.00 | 81 | 1018.7 |
| 20260503080108 | 40 | 200 | 1.0 | 4.0 | 0.00 | 0.00 | 0.00 | 82 | 1018.7 |
| 20260503071607 | 40 | 193 | 0.0 | 2.0 | 0.00 | 0.00 | 0.00 | 85 | 1018.8 |